Time;durP1;ratioP1;P1;durP2;ratioP2;P2;SDS_P1;SDS_P2;PMS_P1;PMS_P2;Temp;Humidity;BMP_temperature;BMP_pressure;BME280_temperature;BME280_humidity;BME280_pressure;Samples;Min_cycle;Max_cycle;Signal;HPM_P1;HPM_P2
2023/12/20 00:02:12;;;;;;;1043.93;944.50;;;7.80;99.90;;;;;;5054883;28;20943;-85
2023/12/20 00:04:41;;;;;;;1040.13;943.47;;;7.70;99.90;;;;;;5053698;28;20458;-85
2023/12/20 00:07:08;;;;;;;1035.60;944.77;;;7.60;99.90;;;;;;5055916;28;20448;-85
2023/12/20 00:09:34;;;;;;;947.97;862.47;;;7.40;99.90;;;;;;5055766;28;20458;-86
2023/12/20 00:12:01;;;;;;;952.40;866.77;;;7.40;99.90;;;;;;5055538;28;20514;-86
2023/12/20 00:14:28;;;;;;;967.70;879.97;;;7.30;99.90;;;;;;5052609;28;20468;-86
2023/12/20 00:16:55;;;;;;;985.67;897.50;;;7.30;99.90;;;;;;5055897;28;20489;-86
2023/12/20 00:19:22;;;;;;;974.57;888.17;;;7.20;99.90;;;;;;5055387;28;20958;-86
2023/12/20 00:21:50;;;;;;;1036.30;945.40;;;7.20;99.90;;;;;;5055259;28;20462;-86
2023/12/20 00:24:17;;;;;;;1044.97;950.37;;;7.20;99.90;;;;;;5053022;28;20817;-85
2023/12/20 00:26:44;;;;;;;1052.57;959.50;;;7.10;99.90;;;;;;5055229;28;20936;-87
2023/12/20 00:29:11;;;;;;;1051.20;958.00;;;7.10;99.90;;;;;;5055433;28;20478;-86
2023/12/20 00:31:38;;;;;;;1049.70;956.10;;;7.10;99.90;;;;;;5054838;28;20968;-86
2023/12/20 00:34:04;;;;;;;1046.57;953.97;;;7.00;99.90;;;;;;5052666;28;20792;-87
2023/12/20 00:36:31;;;;;;;1059.67;962.27;;;6.90;99.90;;;;;;5055099;28;20513;-87
2023/12/20 00:39:00;;;;;;;1057.53;959.37;;;6.80;99.90;;;;;;5054963;28;20964;-87
2023/12/20 00:41:27;;;;;;;1110.57;999.90;;;6.80;99.90;;;;;;5055050;28;20450;-86
2023/12/20 00:43:53;;;;;;;1105.70;997.90;;;6.80;99.90;;;;;;5052667;28;20451;-87
2023/12/20 00:46:20;;;;;;;1057.13;953.00;;;6.90;99.90;;;;;;5054550;28;20454;-87
2023/12/20 00:48:47;;;;;;;1055.97;951.60;;;6.90;99.90;;;;;;5055105;28;20475;-87
2023/12/20 00:51:14;;;;;;;1052.47;947.63;;;6.90;99.90;;;;;;5054828;28;20973;-86
2023/12/20 00:53:41;;;;;;;1051.20;946.07;;;6.90;99.90;;;;;;5052816;28;20488;-86
2023/12/20 00:56:09;;;;;;;1066.40;958.60;;;6.90;99.90;;;;;;5054174;28;20486;-86
2023/12/20 00:58:36;;;;;;;1044.33;937.33;;;6.90;99.90;;;;;;5054952;28;20447;-87
2023/12/20 01:01:03;;;;;;;1114.67;999.63;;;6.90;99.90;;;;;;5054888;28;20455;-87
2023/12/20 01:03:30;;;;;;;1128.33;999.90;;;6.90;99.90;;;;;;5052445;28;20450;-86
2023/12/20 01:05:57;;;;;;;1123.60;999.90;;;6.90;99.90;;;;;;5053909;28;20449;-88
2023/12/20 01:08:24;;;;;;;1156.87;999.90;;;6.90;99.90;;;;;;5054765;28;20812;-86
2023/12/20 01:10:50;;;;;;;1185.93;999.90;;;6.90;99.90;;;;;;5054679;28;20465;-86
2023/12/20 01:13:19;;;;;;;1185.43;999.90;;;6.90;99.90;;;;;;5052450;28;20451;-86
2023/12/20 01:15:47;;;;;;;1157.53;999.90;;;6.90;99.90;;;;;;5053437;28;20495;-86
2023/12/20 01:18:14;;;;;;;1148.87;999.90;;;6.80;99.90;;;;;;5054557;28;20452;-86
2023/12/20 01:20:41;;;;;;;1118.93;999.90;;;6.80;99.90;;;;;;5054241;28;20486;-86
2023/12/20 01:23:07;;;;;;;1141.37;999.90;;;6.80;99.90;;;;;;5052197;28;20449;-87
2023/12/20 01:25:34;;;;;;;1150.77;999.90;;;6.70;99.90;;;;;;5053194;28;20457;-86
2023/12/20 01:28:03;;;;;;;1160.57;999.90;;;6.70;99.90;;;;;;5053910;28;20507;-86
2023/12/20 01:30:31;;;;;;;1091.30;991.33;;;6.60;99.90;;;;;;5053979;28;20513;-88
2023/12/20 01:32:58;;;;;;;1008.83;915.70;;;6.50;99.90;;;;;;5052417;28;20454;-84
2023/12/20 01:35:24;;;;;;;991.07;900.17;;;6.50;99.90;;;;;;5052719;28;20457;-87
2023/12/20 01:37:51;;;;;;;973.83;883.80;;;6.50;99.90;;;;;;5053816;28;20481;-87
2023/12/20 01:40:18;;;;;;;962.53;876.47;;;6.50;99.90;;;;;;5053917;28;20953;-86
2023/12/20 01:42:45;;;;;;;973.03;886.83;;;6.50;99.90;;;;;;5052272;28;20540;-87
2023/12/20 01:45:15;;;;;;;959.23;875.83;;;6.30;99.90;;;;;;5052322;28;20443;-86
2023/12/20 01:47:43;;;;;;;991.63;905.23;;;6.20;99.90;;;;;;5053713;28;20959;-86
2023/12/20 01:50:10;;;;;;;999.17;911.73;;;6.10;99.90;;;;;;5053713;28;20455;-86
2023/12/20 01:52:38;;;;;;;995.67;909.10;;;6.00;99.90;;;;;;5053058;28;20457;-87
2023/12/20 01:55:12;;;;;;;987.93;901.83;;;5.90;99.90;;;;;;5051934;28;20461;-88
2023/12/20 01:57:40;;;;;;;962.93;878.67;;;5.90;99.90;;;;;;5053866;28;20463;-86
2023/12/20 02:00:09;;;;;;;939.83;857.33;;;5.90;99.90;;;;;;5053575;28;20453;-86
2023/12/20 02:02:40;;;;;;;930.40;848.70;;;5.90;99.90;;;;;;5052223;28;20447;-87
2023/12/20 02:05:09;;;;;;;926.73;845.60;;;5.90;99.90;;;;;;5052425;28;20437;-85
2023/12/20 02:07:36;;;;;;;920.57;838.53;;;5.80;99.90;;;;;;5053734;28;20446;-86
2023/12/20 02:10:03;;;;;;;919.70;835.33;;;5.70;99.90;;;;;;5053775;28;20480;-86
2023/12/20 02:12:30;;;;;;;922.23;838.17;;;5.70;99.90;;;;;;5052547;28;21057;-85
2023/12/20 02:14:57;;;;;;;928.83;843.97;;;5.80;99.90;;;;;;5051396;28;20471;-86
2023/12/20 02:17:24;;;;;;;920.87;837.80;;;5.80;99.90;;;;;;5053897;28;20482;-86
2023/12/20 02:19:51;;;;;;;926.60;843.10;;;5.70;99.90;;;;;;5053538;28;20465;-86
2023/12/20 02:22:19;;;;;;;927.67;843.67;;;5.70;99.90;;;;;;5052665;28;20459;-85
2023/12/20 02:24:46;;;;;;;928.17;843.57;;;5.60;99.90;;;;;;5051322;28;20455;-85
2023/12/20 02:27:13;;;;;;;942.00;857.53;;;5.60;99.90;;;;;;5054416;28;20794;-87
2023/12/20 02:29:40;;;;;;;1005.90;915.83;;;5.50;99.90;;;;;;5053539;28;20452;-86
2023/12/20 02:32:07;;;;;;;1014.57;922.90;;;5.70;99.90;;;;;;5052327;28;20450;-86
2023/12/20 02:34:34;;;;;;;1008.17;918.00;;;5.70;99.90;;;;;;5050968;28;20949;-86
2023/12/20 02:37:01;;;;;;;976.47;890.80;;;5.80;99.90;;;;;;5053378;28;20516;-86
2023/12/20 02:39:29;;;;;;;916.17;832.37;;;5.80;99.90;;;;;;5057174;28;20453;-86
2023/12/20 02:41:56;;;;;;;924.53;842.10;;;5.90;99.90;;;;;;5056975;28;20508;-86
2023/12/20 02:44:23;;;;;;;912.43;831.57;;;5.80;99.90;;;;;;5054541;28;20452;-86
2023/12/20 02:46:50;;;;;;;894.10;815.03;;;5.80;99.90;;;;;;5057234;28;20450;-86
2023/12/20 02:49:16;;;;;;;946.97;865.90;;;5.80;99.90;;;;;;5057039;28;20460;-86
2023/12/20 02:51:43;;;;;;;963.20;879.40;;;5.80;99.90;;;;;;5057091;28;20495;-87
2023/12/20 02:54:10;;;;;;;959.73;876.57;;;5.90;99.90;;;;;;5054574;28;20873;-87
2023/12/20 02:56:38;;;;;;;972.70;887.10;;;5.90;99.90;;;;;;5056682;28;21006;-86
2023/12/20 02:59:08;;;;;;;974.83;889.63;;;5.90;99.90;;;;;;5056866;28;20458;-87
2023/12/20 03:01:35;;;;;;;969.00;884.77;;;6.00;99.90;;;;;;5056613;28;20506;-85
2023/12/20 03:04:02;;;;;;;971.83;889.57;;;6.00;99.90;;;;;;5054598;28;20453;-86
2023/12/20 03:06:29;;;;;;;955.37;875.53;;;5.90;99.90;;;;;;5056709;28;20451;-86
2023/12/20 03:08:56;;;;;;;937.00;859.30;;;5.90;99.90;;;;;;5057023;28;20790;-86
2023/12/20 03:11:22;;;;;;;885.43;810.70;;;5.80;99.90;;;;;;5056958;28;20453;-85
2023/12/20 03:13:51;;;;;;;887.30;810.20;;;5.80;99.90;;;;;;5054058;28;20453;-86
2023/12/20 03:16:17;;;;;;;903.80;827.10;;;5.70;99.90;;;;;;5056150;28;20435;-87
2023/12/20 03:18:44;;;;;;;893.47;815.60;;;5.70;99.90;;;;;;5056522;28;20454;-85
2023/12/20 03:21:11;;;;;;;897.70;821.70;;;5.70;99.90;;;;;;5056785;28;20450;-87
2023/12/20 03:23:38;;;;;;;888.33;813.40;;;5.70;99.90;;;;;;5054032;28;20541;-85
2023/12/20 03:26:08;;;;;;;897.57;822.77;;;5.80;99.90;;;;;;5055668;28;20457;-85
2023/12/20 03:28:35;;;;;;;906.40;831.63;;;5.80;99.90;;;;;;5057767;28;20456;-85
2023/12/20 03:31:04;;;;;;;937.90;862.40;;;5.80;99.90;;;;;;5056586;28;20456;-85
2023/12/20 03:33:31;;;;;;;951.70;874.43;;;5.80;99.90;;;;;;5053895;28;20824;-88
2023/12/20 03:35:58;;;;;;;959.87;881.70;;;5.80;99.90;;;;;;5055510;28;20533;-85
2023/12/20 03:38:25;;;;;;;960.97;883.70;;;5.80;99.90;;;;;;5056612;28;20470;-85
2023/12/20 03:40:52;;;;;;;955.93;880.40;;;5.90;99.90;;;;;;5056396;28;20480;-86
2023/12/20 03:43:19;;;;;;;919.93;846.50;;;5.90;99.90;;;;;;5053854;28;20465;-85
2023/12/20 03:45:46;;;;;;;908.73;835.57;;;5.90;99.90;;;;;;5055484;28;20451;-85
2023/12/20 03:48:14;;;;;;;907.13;834.90;;;5.80;99.90;;;;;;5056307;28;20482;-86
2023/12/20 03:50:41;;;;;;;899.53;826.33;;;5.70;99.90;;;;;;5055128;28;20457;-85
2023/12/20 03:53:08;;;;;;;904.90;830.97;;;5.80;99.90;;;;;;5054051;28;20456;-85
2023/12/20 03:55:35;;;;;;;903.63;829.50;;;5.70;99.90;;;;;;5055288;28;20508;-85
2023/12/20 03:58:02;;;;;;;907.37;833.50;;;5.70;99.90;;;;;;5056007;28;20578;-84
2023/12/20 04:00:28;;;;;;;902.97;827.97;;;5.70;99.90;;;;;;5056034;28;20459;-85
2023/12/20 04:02:55;;;;;;;907.20;834.40;;;5.70;99.90;;;;;;5054280;28;20452;-85
2023/12/20 04:05:23;;;;;;;915.17;842.77;;;5.80;99.90;;;;;;5054424;28;20477;-85
2023/12/20 04:07:51;;;;;;;917.17;845.87;;;5.80;99.90;;;;;;5055605;28;20451;-85
2023/12/20 04:10:17;;;;;;;954.23;880.77;;;5.80;99.90;;;;;;5055637;28;20519;-84
2023/12/20 04:12:47;;;;;;;940.63;868.50;;;5.80;99.90;;;;;;5054164;28;20450;-85
2023/12/20 04:15:14;;;;;;;913.57;842.17;;;5.80;99.90;;;;;;5053849;28;20460;-86
2023/12/20 04:17:40;;;;;;;904.53;833.90;;;5.70;99.90;;;;;;5056463;28;20878;-85
2023/12/20 04:20:08;;;;;;;915.80;844.80;;;5.70;99.90;;;;;;5055632;28;20456;-84
2023/12/20 04:22:37;;;;;;;921.17;847.67;;;5.60;99.90;;;;;;5054013;28;20579;-84
2023/12/20 04:25:04;;;;;;;915.60;843.93;;;5.60;99.90;;;;;;5053622;28;20453;-86
2023/12/20 04:27:31;;;;;;;914.13;841.83;;;5.60;99.90;;;;;;5055563;28;20447;-84
2023/12/20 04:29:57;;;;;;;928.53;856.80;;;5.60;99.90;;;;;;5055359;28;20959;-85
2023/12/20 04:32:24;;;;;;;937.63;866.33;;;5.60;99.90;;;;;;5054530;28;20458;-84
2023/12/20 04:34:51;;;;;;;924.00;854.10;;;5.60;99.90;;;;;;5053120;28;20949;-85
2023/12/20 04:37:18;;;;;;;932.03;860.93;;;5.60;99.90;;;;;;5055308;28;20484;-84
2023/12/20 04:39:46;;;;;;;965.43;892.27;;;5.50;99.90;;;;;;5055217;28;20463;-84
2023/12/20 04:42:13;;;;;;;956.43;884.93;;;5.50;99.90;;;;;;5054651;28;20457;-85
2023/12/20 04:44:40;;;;;;;964.03;894.33;;;5.60;99.90;;;;;;5052957;28;20452;-85
2023/12/20 04:47:06;;;;;;;954.70;884.93;;;5.50;99.90;;;;;;5054868;28;20939;-85
2023/12/20 04:49:33;;;;;;;953.13;884.57;;;5.50;99.90;;;;;;5055248;28;20453;-82
2023/12/20 04:52:00;;;;;;;949.07;880.03;;;5.50;99.90;;;;;;5054131;28;20456;-82
2023/12/20 04:54:27;;;;;;;931.37;862.77;;;5.50;99.90;;;;;;5052574;28;20448;-82
2023/12/20 04:56:55;;;;;;;930.53;862.87;;;5.50;99.90;;;;;;5054918;28;20451;-82
2023/12/20 04:59:22;;;;;;;925.77;859.43;;;5.50;99.90;;;;;;5054948;28;20452;-81
2023/12/20 05:01:49;;;;;;;913.77;846.17;;;5.40;99.90;;;;;;5053939;28;20923;-84
2023/12/20 05:04:15;;;;;;;913.80;846.00;;;5.40;99.90;;;;;;5052408;28;21009;-82
2023/12/20 05:06:42;;;;;;;911.07;843.20;;;5.40;99.90;;;;;;5054769;28;20459;-82
2023/12/20 05:09:10;;;;;;;926.13;857.23;;;5.50;99.90;;;;;;5054765;28;20448;-82
2023/12/20 05:11:36;;;;;;;937.40;868.67;;;5.40;99.90;;;;;;5054425;28;20452;-82
2023/12/20 05:14:04;;;;;;;936.43;868.03;;;5.50;99.90;;;;;;5052003;28;20466;-82
2023/12/20 05:16:31;;;;;;;924.53;855.67;;;5.40;99.90;;;;;;5054969;28;20447;-82
2023/12/20 05:19:00;;;;;;;933.80;864.60;;;5.40;99.90;;;;;;5054170;28;20478;-83
2023/12/20 05:21:27;;;;;;;918.47;850.23;;;5.50;99.90;;;;;;5054083;28;20958;-83
2023/12/20 05:23:54;;;;;;;920.13;850.40;;;5.50;99.90;;;;;;5051845;28;20448;-81
2023/12/20 05:26:21;;;;;;;931.07;862.33;;;5.50;99.90;;;;;;5054208;28;20453;-82
2023/12/20 05:28:47;;;;;;;935.67;865.83;;;5.50;99.90;;;;;;5054400;28;20447;-81
2023/12/20 05:31:16;;;;;;;921.23;855.30;;;5.60;99.90;;;;;;5054052;28;20538;-82
2023/12/20 05:33:43;;;;;;;932.43;866.47;;;5.60;99.90;;;;;;5051800;28;20500;-82
2023/12/20 05:36:11;;;;;;;912.00;847.50;;;5.60;99.90;;;;;;5054246;28;20455;-82
2023/12/20 05:38:38;;;;;;;914.27;850.80;;;5.70;99.90;;;;;;5054144;28;20885;-81
2023/12/20 05:41:04;;;;;;;906.00;844.27;;;5.80;99.90;;;;;;5053912;28;20498;-83
2023/12/20 05:43:31;;;;;;;907.77;846.00;;;5.80;99.90;;;;;;5051844;28;20457;-82
2023/12/20 05:45:59;;;;;;;902.00;840.57;;;5.80;99.90;;;;;;5053387;28;20544;-82
2023/12/20 05:48:27;;;;;;;897.17;836.80;;;5.90;99.90;;;;;;5054066;28;20456;-83
2023/12/20 05:50:54;;;;;;;892.23;831.90;;;5.90;99.90;;;;;;5054031;28;20446;-83
2023/12/20 05:53:21;;;;;;;896.83;836.87;;;6.00;99.90;;;;;;5051996;28;20537;-82
2023/12/20 05:55:48;;;;;;;900.07;839.90;;;6.00;99.90;;;;;;5052752;28;20458;-81
2023/12/20 05:58:16;;;;;;;911.30;851.53;;;6.10;99.90;;;;;;5053553;28;21093;-83
2023/12/20 06:00:42;;;;;;;905.13;845.33;;;6.10;99.90;;;;;;5053887;28;20450;-82
2023/12/20 06:03:09;;;;;;;896.73;838.47;;;6.10;99.90;;;;;;5051687;28;20542;-83
2023/12/20 06:05:37;;;;;;;889.03;833.73;;;6.20;99.90;;;;;;5052397;28;20864;-82
2023/12/20 06:08:05;;;;;;;871.03;819.43;;;6.30;99.90;;;;;;5053519;28;20454;-82
2023/12/20 06:10:32;;;;;;;878.17;825.93;;;6.30;99.90;;;;;;5053856;28;20826;-83
2023/12/20 06:13:00;;;;;;;864.83;811.93;;;6.30;99.90;;;;;;5051120;28;20454;-82
2023/12/20 06:15:27;;;;;;;851.87;801.07;;;6.40;99.90;;;;;;5052297;28;20458;-83
2023/12/20 06:17:54;;;;;;;844.83;794.53;;;6.50;99.90;;;;;;5053270;28;20569;-83
2023/12/20 06:20:21;;;;;;;838.97;789.70;;;6.40;99.90;;;;;;5053594;28;20458;-84
2023/12/20 06:22:51;;;;;;;821.53;774.13;;;6.40;99.90;;;;;;5052231;28;20795;-84
2023/12/20 06:25:17;;;;;;;837.53;788.03;;;6.50;99.90;;;;;;5051961;28;20464;-81
